sensor_id;sensor_type;location;lat;lon;timestamp;P1;durP1;ratioP1;P2;durP2;ratioP2
60819;SDS011;46641;48.904;9.126;2022-10-15T00:00:35;0.80;;;0.80;;
60819;SDS011;46641;48.904;9.126;2022-10-15T00:05:25;0.70;;;0.70;;
60819;SDS011;46641;48.904;9.126;2022-10-15T00:10:16;1.57;;;1.00;;
60819;SDS011;46641;48.904;9.126;2022-10-15T00:15:06;1.20;;;1.10;;
60819;SDS011;46641;48.904;9.126;2022-10-15T00:19:57;0.70;;;0.70;;
60819;SDS011;46641;48.904;9.126;2022-10-15T00:24:47;0.83;;;0.70;;
60819;SDS011;46641;48.904;9.126;2022-10-15T00:29:38;6.20;;;1.00;;
60819;SDS011;46641;48.904;9.126;2022-10-15T00:34:28;0.53;;;0.53;;
60819;SDS011;46641;48.904;9.126;2022-10-15T00:39:19;0.80;;;0.80;;
60819;SDS011;46641;48.904;9.126;2022-10-15T00:54:08;0.80;;;0.80;;
60819;SDS011;46641;48.904;9.126;2022-10-15T00:59:01;2.30;;;0.70;;
60819;SDS011;46641;48.904;9.126;2022-10-15T01:03:54;0.83;;;0.80;;
60819;SDS011;46641;48.904;9.126;2022-10-15T01:08:44;1.20;;;0.50;;
60819;SDS011;46641;48.904;9.126;2022-10-15T01:18:48;0.80;;;0.60;;
60819;SDS011;46641;48.904;9.126;2022-10-15T01:24:05;1.07;;;0.70;;
60819;SDS011;46641;48.904;9.126;2022-10-15T01:44:19;0.43;;;0.43;;
60819;SDS011;46641;48.904;9.126;2022-10-15T01:49:14;0.50;;;0.50;;
60819;SDS011;46641;48.904;9.126;2022-10-15T01:54:12;0.97;;;0.40;;
60819;SDS011;46641;48.904;9.126;2022-10-15T01:59:06;0.63;;;0.63;;
60819;SDS011;46641;48.904;9.126;2022-10-15T02:03:59;0.93;;;0.40;;
60819;SDS011;46641;48.904;9.126;2022-10-15T02:08:54;0.83;;;0.80;;
60819;SDS011;46641;48.904;9.126;2022-10-15T02:24:26;0.60;;;0.60;;
60819;SDS011;46641;48.904;9.126;2022-10-15T02:29:22;0.60;;;0.60;;
60819;SDS011;46641;48.904;9.126;2022-10-15T02:34:18;0.50;;;0.50;;
60819;SDS011;46641;48.904;9.126;2022-10-15T02:39:12;0.40;;;0.40;;
60819;SDS011;46641;48.904;9.126;2022-10-15T02:44:06;0.53;;;0.53;;
60819;SDS011;46641;48.904;9.126;2022-10-15T02:48:56;1.23;;;0.47;;
60819;SDS011;46641;48.904;9.126;2022-10-15T02:53:46;1.20;;;0.60;;
60819;SDS011;46641;48.904;9.126;2022-10-15T02:58:37;0.40;;;0.40;;
60819;SDS011;46641;48.904;9.126;2022-10-15T03:03:27;0.50;;;0.30;;
60819;SDS011;46641;48.904;9.126;2022-10-15T03:08:17;0.67;;;0.30;;
60819;SDS011;46641;48.904;9.126;2022-10-15T03:13:08;0.83;;;0.50;;
60819;SDS011;46641;48.904;9.126;2022-10-15T03:17:58;0.43;;;0.43;;
60819;SDS011;46641;48.904;9.126;2022-10-15T03:22:48;0.60;;;0.50;;
60819;SDS011;46641;48.904;9.126;2022-10-15T03:27:38;0.40;;;0.40;;
60819;SDS011;46641;48.904;9.126;2022-10-15T03:32:29;0.97;;;0.47;;
60819;SDS011;46641;48.904;9.126;2022-10-15T03:37:19;0.47;;;0.30;;
60819;SDS011;46641;48.904;9.126;2022-10-15T03:42:10;0.93;;;0.40;;
60819;SDS011;46641;48.904;9.126;2022-10-15T03:47:00;3.70;;;0.93;;
60819;SDS011;46641;48.904;9.126;2022-10-15T03:51:50;1.00;;;0.50;;
60819;SDS011;46641;48.904;9.126;2022-10-15T03:56:41;0.22;;;0.22;;
60819;SDS011;46641;48.904;9.126;2022-10-15T04:01:31;0.75;;;0.57;;
60819;SDS011;46641;48.904;9.126;2022-10-15T04:06:21;1.37;;;0.43;;
60819;SDS011;46641;48.904;9.126;2022-10-15T04:11:11;0.50;;;0.50;;
60819;SDS011;46641;48.904;9.126;2022-10-15T04:16:05;0.50;;;0.50;;
60819;SDS011;46641;48.904;9.126;2022-10-15T04:20:59;0.30;;;0.30;;
60819;SDS011;46641;48.904;9.126;2022-10-15T04:25:50;0.20;;;0.20;;
60819;SDS011;46641;48.904;9.126;2022-10-15T04:30:40;0.30;;;0.30;;
60819;SDS011;46641;48.904;9.126;2022-10-15T04:35:30;0.40;;;0.40;;
60819;SDS011;46641;48.904;9.126;2022-10-15T04:40:21;0.40;;;0.40;;
60819;SDS011;46641;48.904;9.126;2022-10-15T04:45:11;0.67;;;0.40;;
60819;SDS011;46641;48.904;9.126;2022-10-15T04:50:02;0.43;;;0.40;;
60819;SDS011;46641;48.904;9.126;2022-10-15T04:54:52;0.73;;;0.60;;
60819;SDS011;46641;48.904;9.126;2022-10-15T04:59:43;0.43;;;0.37;;
60819;SDS011;46641;48.904;9.126;2022-10-15T05:04:33;0.83;;;0.30;;
60819;SDS011;46641;48.904;9.126;2022-10-15T05:09:23;1.70;;;0.33;;
60819;SDS011;46641;48.904;9.126;2022-10-15T05:14:14;0.38;;;0.38;;
60819;SDS011;46641;48.904;9.126;2022-10-15T05:19:05;0.37;;;0.37;;
60819;SDS011;46641;48.904;9.126;2022-10-15T05:23:56;1.13;;;0.60;;
60819;SDS011;46641;48.904;9.126;2022-10-15T05:28:47;1.13;;;0.30;;
60819;SDS011;46641;48.904;9.126;2022-10-15T05:33:39;0.57;;;0.30;;
60819;SDS011;46641;48.904;9.126;2022-10-15T05:38:30;0.30;;;0.10;;
60819;SDS011;46641;48.904;9.126;2022-10-15T05:43:20;1.27;;;0.20;;
60819;SDS011;46641;48.904;9.126;2022-10-15T05:48:10;1.00;;;0.50;;
60819;SDS011;46641;48.904;9.126;2022-10-15T05:53:00;0.53;;;0.50;;
60819;SDS011;46641;48.904;9.126;2022-10-15T05:57:51;0.50;;;0.50;;
60819;SDS011;46641;48.904;9.126;2022-10-15T06:02:41;0.87;;;0.60;;
60819;SDS011;46641;48.904;9.126;2022-10-15T06:07:32;0.70;;;0.70;;
60819;SDS011;46641;48.904;9.126;2022-10-15T06:12:22;0.40;;;0.40;;
60819;SDS011;46641;48.904;9.126;2022-10-15T06:17:13;1.07;;;0.53;;
60819;SDS011;46641;48.904;9.126;2022-10-15T06:22:03;3.60;;;0.70;;
60819;SDS011;46641;48.904;9.126;2022-10-15T06:26:53;1.33;;;0.73;;
60819;SDS011;46641;48.904;9.126;2022-10-15T06:31:43;0.53;;;0.50;;
60819;SDS011;46641;48.904;9.126;2022-10-15T06:36:34;5.70;;;3.53;;
60819;SDS011;46641;48.904;9.126;2022-10-15T06:41:24;1.43;;;0.80;;
60819;SDS011;46641;48.904;9.126;2022-10-15T06:46:14;0.68;;;0.68;;
60819;SDS011;46641;48.904;9.126;2022-10-15T06:51:05;1.80;;;0.50;;
60819;SDS011;46641;48.904;9.126;2022-10-15T06:55:59;0.87;;;0.87;;
60819;SDS011;46641;48.904;9.126;2022-10-15T07:00:51;1.10;;;0.77;;
60819;SDS011;46641;48.904;9.126;2022-10-15T07:05:41;1.03;;;0.70;;
60819;SDS011;46641;48.904;9.126;2022-10-15T07:10:31;1.10;;;1.00;;
60819;SDS011;46641;48.904;9.126;2022-10-15T07:15:22;3.37;;;1.53;;
60819;SDS011;46641;48.904;9.126;2022-10-15T07:20:12;1.93;;;1.30;;
60819;SDS011;46641;48.904;9.126;2022-10-15T07:25:02;1.27;;;0.90;;
60819;SDS011;46641;48.904;9.126;2022-10-15T07:29:53;0.90;;;0.90;;
60819;SDS011;46641;48.904;9.126;2022-10-15T07:34:43;2.07;;;1.10;;
60819;SDS011;46641;48.904;9.126;2022-10-15T07:39:34;1.40;;;1.30;;
60819;SDS011;46641;48.904;9.126;2022-10-15T07:44:24;0.80;;;0.80;;
60819;SDS011;46641;48.904;9.126;2022-10-15T07:49:14;1.30;;;1.10;;
60819;SDS011;46641;48.904;9.126;2022-10-15T07:54:05;3.60;;;1.87;;
60819;SDS011;46641;48.904;9.126;2022-10-15T07:58:55;1.53;;;1.10;;
60819;SDS011;46641;48.904;9.126;2022-10-15T08:03:45;1.90;;;1.80;;
60819;SDS011;46641;48.904;9.126;2022-10-15T08:08:36;5.20;;;4.90;;
60819;SDS011;46641;48.904;9.126;2022-10-15T08:13:27;1.50;;;1.40;;
60819;SDS011;46641;48.904;9.126;2022-10-15T08:18:17;4.23;;;3.83;;
60819;SDS011;46641;48.904;9.126;2022-10-15T08:23:12;3.40;;;2.70;;
60819;SDS011;46641;48.904;9.126;2022-10-15T08:28:04;5.43;;;5.03;;
60819;SDS011;46641;48.904;9.126;2022-10-15T08:32:54;7.93;;;7.23;;
60819;SDS011;46641;48.904;9.126;2022-10-15T08:37:44;5.40;;;4.90;;
60819;SDS011;46641;48.904;9.126;2022-10-15T08:42:36;3.07;;;2.77;;
60819;SDS011;46641;48.904;9.126;2022-10-15T08:47:40;2.00;;;1.90;;
60819;SDS011;46641;48.904;9.126;2022-10-15T08:52:43;3.20;;;3.00;;
60819;SDS011;46641;48.904;9.126;2022-10-15T08:57:40;2.90;;;2.60;;
60819;SDS011;46641;48.904;9.126;2022-10-15T09:02:37;2.73;;;2.53;;
60819;SDS011;46641;48.904;9.126;2022-10-15T09:17:58;3.20;;;2.70;;
60819;SDS011;46641;48.904;9.126;2022-10-15T09:22:49;10.17;;;5.57;;
60819;SDS011;46641;48.904;9.126;2022-10-15T09:27:40;14.90;;;6.53;;
60819;SDS011;46641;48.904;9.126;2022-10-15T09:32:34;13.23;;;8.30;;
60819;SDS011;46641;48.904;9.126;2022-10-15T09:42:42;4.43;;;2.37;;
60819;SDS011;46641;48.904;9.126;2022-10-15T09:47:34;7.23;;;5.67;;
60819;SDS011;46641;48.904;9.126;2022-10-15T09:57:46;1.53;;;1.43;;
60819;SDS011;46641;48.904;9.126;2022-10-15T10:02:40;1.10;;;1.10;;
60819;SDS011;46641;48.904;9.126;2022-10-15T10:07:32;1.10;;;1.10;;
60819;SDS011;46641;48.904;9.126;2022-10-15T10:12:32;1.97;;;1.53;;
60819;SDS011;46641;48.904;9.126;2022-10-15T10:17:25;0.97;;;0.93;;
60819;SDS011;46641;48.904;9.126;2022-10-15T10:22:18;0.50;;;0.50;;
60819;SDS011;46641;48.904;9.126;2022-10-15T10:27:22;1.10;;;1.00;;
60819;SDS011;46641;48.904;9.126;2022-10-15T10:32:22;1.70;;;1.00;;
60819;SDS011;46641;48.904;9.126;2022-10-15T10:37:16;1.33;;;0.70;;
60819;SDS011;46641;48.904;9.126;2022-10-15T10:57:13;0.73;;;0.70;;
60819;SDS011;46641;48.904;9.126;2022-10-15T11:02:10;0.93;;;0.80;;
60819;SDS011;46641;48.904;9.126;2022-10-15T11:22:29;1.07;;;0.70;;
60819;SDS011;46641;48.904;9.126;2022-10-15T11:27:45;0.50;;;0.47;;
60819;SDS011;46641;48.904;9.126;2022-10-15T12:03:55;2.00;;;0.80;;
60819;SDS011;46641;48.904;9.126;2022-10-15T12:08:50;1.17;;;1.00;;
60819;SDS011;46641;48.904;9.126;2022-10-15T12:24:02;1.40;;;0.77;;
60819;SDS011;46641;48.904;9.126;2022-10-15T12:29:01;1.63;;;0.93;;
60819;SDS011;46641;48.904;9.126;2022-10-15T12:33:54;0.70;;;0.70;;
60819;SDS011;46641;48.904;9.126;2022-10-15T12:39:02;0.70;;;0.70;;
60819;SDS011;46641;48.904;9.126;2022-10-15T12:44:03;0.80;;;0.80;;
60819;SDS011;46641;48.904;9.126;2022-10-15T12:48:56;1.80;;;0.80;;
60819;SDS011;46641;48.904;9.126;2022-10-15T12:53:47;1.03;;;0.70;;
60819;SDS011;46641;48.904;9.126;2022-10-15T12:58:40;1.37;;;0.70;;
60819;SDS011;46641;48.904;9.126;2022-10-15T13:08:27;3.20;;;0.87;;
60819;SDS011;46641;48.904;9.126;2022-10-15T13:13:21;1.17;;;0.60;;
60819;SDS011;46641;48.904;9.126;2022-10-15T13:18:15;1.83;;;0.63;;
60819;SDS011;46641;48.904;9.126;2022-10-15T13:27:59;0.87;;;0.63;;
60819;SDS011;46641;48.904;9.126;2022-10-15T13:32:51;1.00;;;1.00;;
60819;SDS011;46641;48.904;9.126;2022-10-15T13:37:42;0.90;;;0.80;;
60819;SDS011;46641;48.904;9.126;2022-10-15T13:42:33;1.33;;;0.90;;
60819;SDS011;46641;48.904;9.126;2022-10-15T13:47:34;0.73;;;0.73;;
60819;SDS011;46641;48.904;9.126;2022-10-15T13:52:26;1.00;;;0.70;;
60819;SDS011;46641;48.904;9.126;2022-10-15T13:57:16;1.03;;;1.03;;
60819;SDS011;46641;48.904;9.126;2022-10-15T14:02:09;1.80;;;1.00;;
60819;SDS011;46641;48.904;9.126;2022-10-15T14:07:01;1.60;;;1.10;;
60819;SDS011;46641;48.904;9.126;2022-10-15T14:11:53;1.73;;;1.17;;
60819;SDS011;46641;48.904;9.126;2022-10-15T14:16:45;2.30;;;0.90;;
60819;SDS011;46641;48.904;9.126;2022-10-15T14:21:36;1.20;;;1.13;;
60819;SDS011;46641;48.904;9.126;2022-10-15T14:26:33;2.27;;;1.07;;
60819;SDS011;46641;48.904;9.126;2022-10-15T14:31:28;0.73;;;0.73;;
60819;SDS011;46641;48.904;9.126;2022-10-15T14:36:22;0.87;;;0.87;;
60819;SDS011;46641;48.904;9.126;2022-10-15T14:41:20;1.80;;;1.07;;
60819;SDS011;46641;48.904;9.126;2022-10-15T14:46:18;1.00;;;1.00;;
60819;SDS011;46641;48.904;9.126;2022-10-15T14:51:16;0.77;;;0.70;;
60819;SDS011;46641;48.904;9.126;2022-10-15T15:01:12;1.07;;;1.00;;
60819;SDS011;46641;48.904;9.126;2022-10-15T15:06:04;1.77;;;1.00;;
60819;SDS011;46641;48.904;9.126;2022-10-15T15:10:55;1.93;;;1.43;;
60819;SDS011;46641;48.904;9.126;2022-10-15T15:15:48;2.10;;;1.00;;
60819;SDS011;46641;48.904;9.126;2022-10-15T15:20:39;1.50;;;1.00;;
60819;SDS011;46641;48.904;9.126;2022-10-15T15:25:32;0.87;;;0.87;;
60819;SDS011;46641;48.904;9.126;2022-10-15T15:30:26;2.00;;;1.33;;
60819;SDS011;46641;48.904;9.126;2022-10-15T15:40:18;1.07;;;1.07;;
60819;SDS011;46641;48.904;9.126;2022-10-15T15:45:22;1.10;;;1.00;;
60819;SDS011;46641;48.904;9.126;2022-10-15T15:50:13;1.10;;;0.90;;
60819;SDS011;46641;48.904;9.126;2022-10-15T15:55:04;1.13;;;1.10;;
60819;SDS011;46641;48.904;9.126;2022-10-15T15:59:55;1.23;;;1.00;;
60819;SDS011;46641;48.904;9.126;2022-10-15T16:04:45;1.53;;;1.03;;
60819;SDS011;46641;48.904;9.126;2022-10-15T16:09:36;1.27;;;1.17;;
60819;SDS011;46641;48.904;9.126;2022-10-15T16:14:26;1.20;;;0.70;;
60819;SDS011;46641;48.904;9.126;2022-10-15T16:19:17;1.37;;;0.70;;
60819;SDS011;46641;48.904;9.126;2022-10-15T16:24:08;1.27;;;1.17;;
60819;SDS011;46641;48.904;9.126;2022-10-15T16:28:58;0.80;;;0.80;;
60819;SDS011;46641;48.904;9.126;2022-10-15T16:33:49;1.48;;;0.60;;
60819;SDS011;46641;48.904;9.126;2022-10-15T16:38:39;0.97;;;0.67;;
60819;SDS011;46641;48.904;9.126;2022-10-15T16:43:31;0.40;;;0.40;;
60819;SDS011;46641;48.904;9.126;2022-10-15T16:48:22;1.30;;;0.90;;
60819;SDS011;46641;48.904;9.126;2022-10-15T16:53:13;0.70;;;0.70;;
60819;SDS011;46641;48.904;9.126;2022-10-15T16:58:03;0.60;;;0.60;;
60819;SDS011;46641;48.904;9.126;2022-10-15T17:02:54;0.80;;;0.70;;
60819;SDS011;46641;48.904;9.126;2022-10-15T17:07:44;2.53;;;0.80;;
60819;SDS011;46641;48.904;9.126;2022-10-15T17:12:36;0.90;;;0.90;;
60819;SDS011;46641;48.904;9.126;2022-10-15T17:17:26;0.80;;;0.80;;
60819;SDS011;46641;48.904;9.126;2022-10-15T17:22:17;1.53;;;1.20;;
60819;SDS011;46641;48.904;9.126;2022-10-15T17:27:07;0.83;;;0.83;;
60819;SDS011;46641;48.904;9.126;2022-10-15T17:31:57;1.63;;;0.82;;
60819;SDS011;46641;48.904;9.126;2022-10-15T17:36:48;1.60;;;0.77;;
60819;SDS011;46641;48.904;9.126;2022-10-15T17:41:38;1.17;;;0.90;;
60819;SDS011;46641;48.904;9.126;2022-10-15T17:46:29;0.90;;;0.90;;
60819;SDS011;46641;48.904;9.126;2022-10-15T17:51:21;1.70;;;1.00;;
60819;SDS011;46641;48.904;9.126;2022-10-15T17:56:17;0.80;;;0.77;;
60819;SDS011;46641;48.904;9.126;2022-10-15T18:01:22;1.23;;;1.13;;
60819;SDS011;46641;48.904;9.126;2022-10-15T18:06:17;0.90;;;0.87;;
60819;SDS011;46641;48.904;9.126;2022-10-15T18:11:11;1.23;;;1.13;;
60819;SDS011;46641;48.904;9.126;2022-10-15T18:16:04;1.13;;;1.00;;
60819;SDS011;46641;48.904;9.126;2022-10-15T18:20:54;1.97;;;1.13;;
60819;SDS011;46641;48.904;9.126;2022-10-15T18:25:45;1.47;;;1.37;;
60819;SDS011;46641;48.904;9.126;2022-10-15T18:30:36;1.77;;;1.60;;
60819;SDS011;46641;48.904;9.126;2022-10-15T18:35:27;1.37;;;1.27;;
60819;SDS011;46641;48.904;9.126;2022-10-15T18:40:18;0.90;;;0.90;;
60819;SDS011;46641;48.904;9.126;2022-10-15T18:45:08;1.10;;;1.00;;
60819;SDS011;46641;48.904;9.126;2022-10-15T18:49:59;1.10;;;1.00;;
60819;SDS011;46641;48.904;9.126;2022-10-15T18:54:50;1.53;;;1.13;;
60819;SDS011;46641;48.904;9.126;2022-10-15T18:59:40;2.87;;;1.80;;
60819;SDS011;46641;48.904;9.126;2022-10-15T19:04:30;1.47;;;1.10;;
60819;SDS011;46641;48.904;9.126;2022-10-15T19:09:22;0.90;;;0.90;;
60819;SDS011;46641;48.904;9.126;2022-10-15T19:14:15;1.33;;;0.93;;
60819;SDS011;46641;48.904;9.126;2022-10-15T19:19:05;1.20;;;1.00;;
60819;SDS011;46641;48.904;9.126;2022-10-15T19:23:56;1.00;;;1.00;;
60819;SDS011;46641;48.904;9.126;2022-10-15T19:28:47;1.27;;;1.10;;
60819;SDS011;46641;48.904;9.126;2022-10-15T19:33:40;1.00;;;1.00;;
60819;SDS011;46641;48.904;9.126;2022-10-15T19:38:32;1.00;;;1.00;;
60819;SDS011;46641;48.904;9.126;2022-10-15T19:43:22;2.07;;;1.10;;
60819;SDS011;46641;48.904;9.126;2022-10-15T19:48:13;0.90;;;0.90;;
60819;SDS011;46641;48.904;9.126;2022-10-15T19:53:05;1.43;;;1.33;;
60819;SDS011;46641;48.904;9.126;2022-10-15T19:57:56;1.50;;;1.40;;
60819;SDS011;46641;48.904;9.126;2022-10-15T20:02:47;2.70;;;1.30;;
60819;SDS011;46641;48.904;9.126;2022-10-15T20:07:38;3.33;;;1.43;;
60819;SDS011;46641;48.904;9.126;2022-10-15T20:12:28;1.52;;;1.05;;
60819;SDS011;46641;48.904;9.126;2022-10-15T20:17:18;1.20;;;1.10;;
60819;SDS011;46641;48.904;9.126;2022-10-15T20:22:08;2.37;;;1.03;;
60819;SDS011;46641;48.904;9.126;2022-10-15T20:26:59;1.10;;;1.00;;
60819;SDS011;46641;48.904;9.126;2022-10-15T20:31:49;1.30;;;1.20;;
60819;SDS011;46641;48.904;9.126;2022-10-15T20:36:40;0.97;;;0.93;;
60819;SDS011;46641;48.904;9.126;2022-10-15T20:41:30;2.73;;;1.33;;
60819;SDS011;46641;48.904;9.126;2022-10-15T20:46:23;1.27;;;0.98;;
60819;SDS011;46641;48.904;9.126;2022-10-15T20:51:16;1.80;;;1.10;;
60819;SDS011;46641;48.904;9.126;2022-10-15T20:56:08;1.37;;;1.27;;
60819;SDS011;46641;48.904;9.126;2022-10-15T21:00:59;1.17;;;0.97;;
60819;SDS011;46641;48.904;9.126;2022-10-15T21:05:49;2.67;;;1.50;;
60819;SDS011;46641;48.904;9.126;2022-10-15T21:10:40;1.00;;;1.00;;
60819;SDS011;46641;48.904;9.126;2022-10-15T21:15:30;1.03;;;0.83;;
60819;SDS011;46641;48.904;9.126;2022-10-15T21:20:21;1.60;;;1.33;;
60819;SDS011;46641;48.904;9.126;2022-10-15T21:25:11;1.20;;;1.07;;
60819;SDS011;46641;48.904;9.126;2022-10-15T21:30:02;1.40;;;1.27;;
60819;SDS011;46641;48.904;9.126;2022-10-15T21:34:52;1.63;;;1.13;;
60819;SDS011;46641;48.904;9.126;2022-10-15T21:39:43;1.10;;;1.03;;
60819;SDS011;46641;48.904;9.126;2022-10-15T21:44:33;2.90;;;1.00;;
60819;SDS011;46641;48.904;9.126;2022-10-15T21:49:23;1.47;;;1.27;;
60819;SDS011;46641;48.904;9.126;2022-10-15T21:54:13;1.63;;;1.10;;
60819;SDS011;46641;48.904;9.126;2022-10-15T21:59:04;6.23;;;1.50;;
60819;SDS011;46641;48.904;9.126;2022-10-15T22:03:58;1.53;;;1.30;;
60819;SDS011;46641;48.904;9.126;2022-10-15T22:08:50;1.93;;;1.40;;
60819;SDS011;46641;48.904;9.126;2022-10-15T22:13:41;1.00;;;0.87;;
60819;SDS011;46641;48.904;9.126;2022-10-15T22:18:33;1.50;;;1.30;;
60819;SDS011;46641;48.904;9.126;2022-10-15T22:23:23;3.00;;;1.40;;
60819;SDS011;46641;48.904;9.126;2022-10-15T22:28:13;1.47;;;1.37;;
60819;SDS011;46641;48.904;9.126;2022-10-15T22:33:03;1.87;;;1.40;;
60819;SDS011;46641;48.904;9.126;2022-10-15T22:37:54;1.40;;;1.30;;
60819;SDS011;46641;48.904;9.126;2022-10-15T22:42:46;1.73;;;1.50;;
60819;SDS011;46641;48.904;9.126;2022-10-15T22:47:37;1.30;;;1.20;;
60819;SDS011;46641;48.904;9.126;2022-10-15T22:52:27;1.00;;;1.00;;
60819;SDS011;46641;48.904;9.126;2022-10-15T22:57:18;1.53;;;1.23;;
60819;SDS011;46641;48.904;9.126;2022-10-15T23:02:09;1.83;;;1.23;;
60819;SDS011;46641;48.904;9.126;2022-10-15T23:06:59;1.50;;;1.30;;
60819;SDS011;46641;48.904;9.126;2022-10-15T23:11:49;1.50;;;1.40;;
60819;SDS011;46641;48.904;9.126;2022-10-15T23:16:41;2.73;;;1.80;;
60819;SDS011;46641;48.904;9.126;2022-10-15T23:21:37;2.90;;;1.70;;
60819;SDS011;46641;48.904;9.126;2022-10-15T23:26:31;3.77;;;1.53;;
60819;SDS011;46641;48.904;9.126;2022-10-15T23:31:23;2.33;;;1.60;;
60819;SDS011;46641;48.904;9.126;2022-10-15T23:36:16;2.53;;;1.70;;
60819;SDS011;46641;48.904;9.126;2022-10-15T23:41:07;1.47;;;1.33;;
60819;SDS011;46641;48.904;9.126;2022-10-15T23:45:58;2.13;;;1.43;;
60819;SDS011;46641;48.904;9.126;2022-10-15T23:50:49;1.60;;;1.50;;
60819;SDS011;46641;48.904;9.126;2022-10-15T23:55:40;3.47;;;1.37;;
